Accueil
Images satellite Prévisions 15 joursClimatMétéo marine Cyclones Foudre AéroportsFAQ Actualités A propos
Météo : Europe Afrique Amérique du Nord Amérique du Sud Asie Australie-Océanie Autres
Langues Contact

Biarritz, France

Anglet

latitude: 43-28N, longitude: 001-32W, altitude: 75 m


METAR: LFBZ 211700Z 11004KT CAVOK 17/12 Q1014 NOSIG
TAF: LFBZ 211100Z 2112/2212 18008KT CAVOK TEMPO 2112/2212 VRB05KT PROB30 TEMPO 2203/2209 18015G25KT

Heure: 18:26 (17:26 UTC)

Observation

Le bulletin a été fait il y a 26 minutes, à 17:00 UTC
Vent 4 kt de est/sud-est
Température 17°C
Humidité 72%
Pression 1014 hPa
Visibilité 10 km ou plus
pas de nuages en-dessous de 1500 mètres et pas de cumulonimbus.

Changer d'unités

Prévision

Le bulletin a été fait il y a 6 heures et 26 minutes, à 11:00 UTC
Prévision valable du 21 à 12 UTC au 22 à 12 UTC
Vent 8 kt de sud
Visibilité 10 km ou plus
pas de nuages en-dessous de 1500 mètres et pas de cumulonimbus.
Temporairement
du 21 à 12 UTC au 22 à 12 UTC
Vent 5 kt de direction variable
Probabilité 30% :
Temporairement
du 22 à 03 UTC au 22 à 09 UTC
Vent 15 kt de sud avec des rafales jusqu'à 25 kt
Les informations qui figurent sur ce site font l'objet d'une clause de non-responsabilité
Météo : Europe Afrique Amérique du Nord Amérique du Sud Asie Australie-Océanie Autres
Images satellite Prévisions 15 joursClimatMétéo marine Cyclones Foudre AéroportsFAQ Langues Contact Actualités A propos